Terminal Aerodrome Forecast
Issued by NWS

Current Version | Previous Version | Text Only | Print | Product List | Glossary Off
Versions: 1 2 3 4 5 6 7 8 9 10 11 12 13 14 15 16 17 18 19

000
FTUS41 KRLX 190538
TAFCKB
TAF
KCKB 190538Z 1906/2006 23005KT 6SM -SHRA OVC035
     FM190800 23005KT P6SM OVC010
     FM192100 26006KT P6SM SCT020=

USA.gov is the U.S. government's official web portal to all federal, state and local government web resources and services.